Terminal Aerodrome Forecast
Issued by NWS

Home | Current Version | Previous Version | Graphics & Text | Print | Product List | Glossary On
Versions: 1 2 3 4 5 6 7 8 9 10 11 12 13 14 15 16 17 18 19 20 21 22 23 24 25 26 27 28 29
301
FTUS43 KTOP 292139 AAB
TAFFOE
TAF AMD
KFOE 292139Z 2922/3018 04013KT 5SM -RA VCTS OVC015CB
     FM300100 09011KT 5SM -RA VCTS SCT006 OVC012CB
     FM301300 19007KT P6SM SCT006 BKN012=

USA.gov is the U.S. government's official web portal to all federal, state and local government web resources and services.